Terminal Aerodrome Forecast
Issued by NWS

Home | Current Version | Previous Version | Text Only | Print | Product List | Glossary On
Versions: 1 2 3 4 5 6 7 8 9 10 11 12 13
000
FTUS43 KBIS 251700
TAFDIK
TAF
KDIK 251739Z 2518/2618 14008KT P6SM SKC
     FM260300 14012KT P6SM SKC
     FM261200 18009KT P6SM FEW240
     FM261400 23008KT P6SM FEW210
     FM261700 28012KT P6SM FEW130=

USA.gov is the U.S. government's official web portal to all federal, state and local government web resources and services.